WETTERDATEN

GESTERN
Time Temp. Taup. r.Fe. Windrich Windstärke Windböe Druck 1h Prec. 24h Prec.
00:08 15 12.9 87 180 0.3 0.8 1006.8 0.0000 0.0000
00:17 15 12.9 87 0 0.8 1007 0.0000 0.0000
00:38 15.1 13 87 0 0.3 1006.6 0.0000 0.0000
00:48 15.1 13 87 0 0.3 1006.6 0.0000 0.0000
00:57 15.1 13 87 0 0.8 1006.6 0.3030 0.3000
01:07 15 12.9 87 0 0.8 1006.6 0.4040 0.4000
01:18 15 12.9 87 209 0.3 0.8 1006.5 0.5050 0.5000
01:28 15 12.9 87 0 0.3 1006.3 0.5050 0.5000
01:37 15 13 88 0 0.8 1006.3 0.6060 0.6000
01:48 15 13 88 0 0.3 1006.5 0.6060 0.6000
01:58 15 13 88 0 0.3 1006.5 0.3030 0.6000
02:08 15 13 88 90 0.3 0.3 1006.7 0.2020 0.6000
02:18 15 13 88 90 0.3 0.3 1006.3 0.1010 0.6000
02:28 14.9 12.9 88 232 0.3 0.3 1006.2 0.2020 0.7000
02:38 14.9 12.9 88 201 0.3 0.8 1006.2 0.1010 0.7000
02:48 14.9 12.9 88 161 0.3 0.8 1006.4 0.1010 0.7000
02:59 14.8 12.7 87 192 0.3 0.8 1006.4 0.1010 0.7000
03:08 14.7 12.6 87 192 0.3 0.8 1006.4 0.1010 0.7000
03:18 14.7 12.6 87 196 0.8 1.1 1006.4 0.1010 0.7000
03:28 14.6 12.5 87 30 0.3 0.3 1006.2 0.1010 0.8000
03:39 14.5 12.5 88 30 0.3 0.3 1005.9 0.2020 0.9000
03:48 14.5 12.5 88 30 0.3 0.3 1005.9 0.5050 1.2000
03:58 14.4 12.4 88 0 0 1006 0.7070 1.4000
04:09 14.4 12.4 88 0 0 1006 0.8080 1.5000
04:13 14.4 12.4 88 30 0.3 0.3 1005.9 0.9090 1.6000
04:23 14.4 12.4 88 45 0.3 0.8 1005.9 1.0100 1.8000
04:33 14.4 12.4 88 45 0.3 0.8 1005.9 1.3130 2.2000
04:43 14.4 12.4 88 45 0.3 0.8 1005.9 1.3130 2.5000
04:56 14.4 12.4 88 45 0.3 0.8 1005.8 1.4140 2.8000
05:07 14.4 12.4 88 125 0.3 1.1 1005.8 1.3130 2.8000
05:17 14.4 12.4 88 125 0.3 1.1 1005.9 1.1110 2.8000
05:27 14.3 12.3 88 125 0.3 1.1 1005.9 1.1110 3.0000
05:37 14.3 12.3 88 0 0 1005.8 0.7070 3.1000
05:49 14.2 12.2 88 125 0.3 1.1 1006.6 0.8080 3.4000
05:59 14.1 12.1 88 48 0.8 1.4 1006.7 4.3430 7.2000
06:09 13.9 11.9 88 90 0.8 0.8 1006.6 4.4440 7.3000
06:19 13.8 11.8 88 90 0.3 0.8 1006.8 4.4440 7.3000
06:30 13.8 11.8 88 90 0.3 0.8 1006.7 4.3430 7.4000
06:39 13.9 11.9 88 270 0.3 0.3 1007.4 4.2420 7.4000
06:49 13.7 11.8 88 348 1.1 2.8 1007.8 7.4740 10.9000
06:59 13.5 11.6 88 225 1.1 2.5 1008 3.8380 11.0000
07:10 13.3 11.2 87 334 0.8 1.4 1008.2 3.7370 11.0000
07:19 13.3 11.4 88 63 0.8 2.2 1008.2 3.7370 11.0000
07:29 13.5 11.6 88 184 0.8 2.2 1008.1 3.7370 11.1000
07:40 14 12.2 89 193 0.8 2.2 1008.1 3.7370 11.1000
07:50 14.6 12.6 88 180 0.3 1.4 1008.2 0.2020 11.1000
07:59 15.1 13 87 180 0.3 1.1 1008.1 0.1010 11.1000
08:10 15 12.5 85 12 0.8 1.7 1008 0.1010 11.1000
08:20 14.9 12.4 85 90 0.3 1.4 1008 0.1010 11.1000
08:30 15.7 13.4 86 172 0.3 1.1 1007.9 0.0000 11.1000
08:39 15.9 13.2 84 90 0.3 1.1 1007.9 0.0000 11.1000
08:50 15.9 13 83 45 0.3 0.8 1007.9 0.0000 11.1000
09:00 16.2 13.5 84 180 0.8 1.4 1008.1 0.0000 11.1000
09:10 16.2 13.3 83 191 0.3 1.1 1008.2 0.0000 11.1000
09:20 16.3 13.4 83 192 0.8 1.7 1008.6 0.0000 11.1000
09:30 16.3 13.2 82 177 0.8 2.2 1008.9 0.0000 11.1000
09:40 16.4 13.3 82 180 1.1 3.1 1009 0.0000 11.1000
10:00 16.6 13.1 80 139 0.8 1.7 1009.5 0.0000 11.1000
10:10 16.5 12.7 78 181 1.1 2.5 1009.3 0.1010 11.2000
10:20 16.3 12.5 78 135 0.8 1.7 1009.5 0.1010 11.2000
10:31 16.1 12.3 78 135 0.3 1.4 1009.7 0.1010 11.2000
10:41 15.8 12 78 130 0.8 2.2 1010.1 0.1010 11.2000
10:50 15.5 11.9 79 171 1.1 2.5 1009.9 0.1010 11.2000
11:00 15.1 11.5 79 50 0.8 1.4 1010.3 0.0000 11.2000
11:11 14.8 11.4 80 90 0.3 1.4 1010.3 0.0000 11.2000
11:21 14.6 11.4 81 90 0.3 1.1 1010.5 0.0000 11.2000
11:30 14.6 11.6 82 90 0.3 1.4 1010.7 0.0000 11.2000
11:41 14.4 11.6 83 90 0.3 1.1 1011.2 0.1010 11.3000
11:51 14.4 11.6 83 194 0.8 2.2 1011.4 0.3030 11.5000
12:01 14.4 11.7 84 180 0.3 1.4 1011.4 0.5050 11.7000
12:10 14.3 11.6 84 90 0.3 1.4 1011.7 0.6060 11.8000
12:21 14.2 11.5 84 90 0.3 0.8 1011.5 0.7070 11.9000
12:31 14.3 11.8 85 153 0.3 1.7 1011.8 0.7070 12.0000
12:41 14.8 12.5 86 184 0.8 1.7 1012 0.7070 12.1000
12:51 15.4 12.9 85 180 0.8 2.2 1011.7 0.6060 12.2000
13:01 15.7 12.8 83 90 0.3 1.7 1011.7 0.5050 12.2000
13:11 16.1 13.2 83 135 0.3 1.4 1011.4 0.3030 12.2000
13:21 16.7 13.4 81 147 0.8 1.7 1011.3 0.3030 12.2000
13:31 17.2 13.1 77 126 0.8 2.5 1011.4 0.2020 12.2000
13:41 17.5 12.8 74 40 0.3 2.2 1011.4 0.0000 12.2000
13:51 18 13.5 75 151 0.8 2.2 1011.3 0.0000 12.2000
14:02 18.3 13.2 72 128 0.8 1.7 1011.3 0.0000 12.2000
14:11 18.5 13.1 71 209 0.3 0.8 1010.9 0.0000 12.2000
14:21 18.8 13.4 71 171 0.3 1.1 1010.9 0.0000 12.2000
14:31 19.2 13.6 70 135 0.3 1.7 1011.3 0.0000 12.2000
14:42 19.5 13.9 70 167 0.8 2.5 1011.2 0.0000 12.2000
14:52 19.9 13.6 67 135 0.3 1.1 1011.3 0.0000 12.2000
15:01 20.1 13.6 66 160 0.8 2.5 1011.4 0.0000 12.2000
15:12 20.1 13.6 66 167 0.8 2.8 1011.5 0.0000 12.2000
15:22 20 14.1 69 149 0.8 2.2 1011.5 0.0000 12.2000
15:32 20.2 13.9 67 174 1.1 2.5 1011.5 0.0000 12.2000
15:42 20.1 13.1 64 125 0.8 2.2 1011.5 0.0000 12.2000
15:52 20.1 13.1 64 149 1.1 2.2 1011.4 0.0000 12.2000
16:02 20 13 64 167 0.3 1.7 1011.4 0.0000 12.2000
16:12 20 12.7 63 156 0.8 2.5 1011.5 0.0000 12.2000
16:22 20.3 12.5 61 171 1.1 3.6 1011.7 0.0000 12.2000
16:53 20 11.2 57 193 1.4 4.2 1011.8 0.0000 12.2000
17:02 19.7 11 57 180 1.1 6.4 1011.8 0.0000 12.2000
17:12 19.4 10.9 58 201 1.1 3.1 1011.8 0.0000 12.2000
17:21 19.3 10.8 58 219 0.8 3.1 1012.5 0.0000 12.2000
17:32 19.1 10.7 58 183 0.8 3.1 1012.4 0.0000 12.2000
17:42 18.9 10.5 58 270 0.8 3.6 1012.4 0.0000 12.2000
17:52 18.8 10.4 58 45 0.8 1.7 1012.8 0.0000 12.2000
18:02 18.5 10.1 58 191 0.3 1.4 1013.2 0.0000 12.2000
18:12 18.1 10.2 60 45 0.3 1.7 1013.3 0.0000 12.2000
18:25 17.8 9.4 58 212 1.4 8.3 1013.2 0.0000 12.2000
18:35 17.7 9.3 58 26 0.3 1.4 1013.6 0.0000 12.2000
18:45 17.6 10 61 35 0.3 1.7 1014 0.0000 12.2000
18:55 17.5 9.4 59 38 0.8 2.2 1014.2 0.0000 12.2000
19:05 17.3 9.7 61 286 0.8 2.5 1014.6 0.0000 12.2000
19:15 17 8.9 59 90 0.8 2.5 1014.4 0.0000 12.2000
19:25 16.7 8.7 59 53 0.8 2.2 1014.8 0.0000 12.2000
19:35 16.3 9 62 315 0.3 1.1 1014.7 0.0000 12.2000
19:45 15.9 9.1 64 29 0.8 1.7 1015 0.0000 12.2000
19:55 15.5 9.2 66 41 0.3 1.4 1014.9 0.0000 12.2000
20:06 15.1 9.2 68 45 0.8 1.7 1015 0.0000 12.2000
20:15 14.9 9.1 68 27 0.8 2.2 1015.1 0.0000 12.2000
20:25 14.7 9.1 69 20 0.8 2.2 1015.4 0.0000 12.2000
20:35 14.4 9 70 28 0.3 1.4 1015.4 0.0000 12.2000
20:46 14.2 8.8 70 29 0.8 1.7 1015.7 0.0000 12.2000
20:56 14.1 8.9 71 38 0.8 1.1 1015.9 0.0000 12.2000
21:05 14 9 72 40 0.3 1.1 1015.8 0.0000 12.2000
21:16 13.9 9.1 73 37 0.8 1.4 1016.2 0.0000 12.2000
21:26 13.7 9 73 50 0.3 1.1 1015.9 0.0000 12.2000
21:36 13.6 8.9 73 40 0.8 1.7 1016.3 0.0000 12.2000
21:45 13.5 9 74 39 0.8 1.4 1016.1 0.0000 12.2000
21:56 13.4 8.9 74 40 0.3 1.1 1016.2 0.0000 12.2000
22:06 13.3 8.8 74 32 0.3 1.1 1016.3 0.0000 12.2000
22:16 13.1 8.8 75 8 0.3 1.4 1016.4 0.0000 12.2000
22:26 13.1 8.8 75 49 0.3 1.1 1016.5 0.0000 12.2000
22:36 13 8.7 75 42 0.8 1.4 1016.7 0.0000 12.2000
22:46 12.9 8.6 75 90 0.3 0.8 1016.6 0.0000 12.2000
22:56 12.8 8.5 75 38 0.3 1.1 1016.5 0.0000 12.2000
23:07 12.7 8.6 76 38 0.3 1.1 1016.9 0.0000 12.2000
23:16 12.7 8.6 76 38 0.3 1.1 1016.7 0.0000 12.2000
23:26 12.7 8.6 76 0 0 1016.7 0.0000 12.2000
23:37 12.6 8.7 77 0 0 1016.7 0.0000 12.2000
23:44 12.5 8.6 77 38 0.3 1.1 1016.7 0.0000 12.2000
23:54 12.5 8.4 76 90 0.3 0.8 1016.7 0.0000

TAGESSTATISTIK

2020-08-04
TEMPERATUR
MITTEL
15.6
MAXIMUM
20.3
16:22
MINIMUM
12.5
23:44
LUFTDRUCK
MITTEL
1010.6
MAXIMUM
1016.9
23:07
MINIMUM
1005.8
04:56
TAUPUNKT
MITTEL
11.6
MAXIMUM
14.1
15:22
MINIMUM
8.4
23:54
FEUCHTIGKEIT
MITTEL
78
MAXIMUM
89
07:40
MINIMUM
57
16:53
WINDSTÄRKE
MITTEL
0.5
MAXIMUM
1.4
16:53
WINDBÖE
MITTEL
1.5
MAXIMUM
8.3
18:25
WINDRICHTUNG
VORHERRSCHENDE
NO
29.1%
N
3.0
NO
29.1
O
12.7
SO
14.9
S
25.4
SW
4.5
W
2.2
NW
1.5
NIEDERSCHLAG
REGEN STUNDE
7.5
REGEN TAG
12.2
TEMPERATUR (°C)
MINIMUM
12.5
MAXIMUM
20.3
MITTEL
15.6
LUFTDRUCK (hpa)
MINIMUM
1005.8
MAXIMUM
1016.9
MITTEL
1010.6
MESSGERÄT